Time;durP1;ratioP1;P1;durP2;ratioP2;P2;SDS_P1;SDS_P2;PMS_P1;PMS_P2;Temp;Humidity;BMP_temperature;BMP_pressure;BME280_temperature;BME280_humidity;BME280_pressure;Samples;Min_cycle;Max_cycle;Signal;HPM_P1;HPM_P2
2021/11/10 00:02:05;;;;;;;;;;;18.10;71.80;;;;;;5074526;28;19924;-48
2021/11/10 00:04:32;;;;;;;;;;;18.10;71.80;;;;;;5090186;28;19924;-50
2021/11/10 00:06:59;;;;;;;;;;;18.10;71.80;;;;;;5095012;28;19931;-51
2021/11/10 00:09:26;;;;;;;;;;;18.10;71.80;;;;;;5094955;28;19989;-50
2021/11/10 00:11:54;;;;;;;;;;;18.10;72.50;;;;;;5085534;28;19928;-52
2021/11/10 00:14:21;;;;;;;;;;;18.10;71.80;;;;;;5074614;28;19994;-48
2021/11/10 00:16:49;;;;;;;;;;;18.10;71.90;;;;;;5074579;28;19928;-49
2021/11/10 00:19:16;;;;;;;;;;;18.10;71.80;;;;;;5086009;28;19928;-52
2021/11/10 00:21:43;;;;;;;;;;;18.10;71.90;;;;;;5094448;28;19974;-46
2021/11/10 00:24:10;;;;;;;;;;;18.10;71.90;;;;;;5094182;28;19924;-46
2021/11/10 00:26:37;;;;;;;;;;;18.10;71.80;;;;;;5089362;28;19928;-46
2021/11/10 00:29:05;;;;;;;;;;;18.10;71.80;;;;;;5074413;28;19925;-46
2021/11/10 00:31:32;;;;;;;;;;;18.10;71.90;;;;;;5074925;28;19924;-45
2021/11/10 00:33:59;;;;;;;;;;;18.10;71.80;;;;;;5081907;28;20341;-46
2021/11/10 00:36:26;;;;;;;;;;;18.10;71.80;;;;;;5076665;28;19958;-44
2021/11/10 00:38:52;;;;;;;;;;;18.10;71.90;;;;;;5094242;28;19985;-45
2021/11/10 00:41:19;;;;;;;;;;;18.10;71.80;;;;;;5092367;28;19971;-51
2021/11/10 00:43:46;;;;;;;;;;;18.10;71.90;;;;;;5073941;28;19939;-53
2021/11/10 00:46:13;;;;;;;;;;;18.10;71.80;;;;;;5073851;28;19931;-49
2021/11/10 00:48:40;;;;;;;;;;;18.10;71.90;;;;;;5077612;28;19985;-47
2021/11/10 00:51:07;;;;;;;;;;;18.10;71.90;;;;;;5094304;28;19973;-51
2021/11/10 00:53:35;;;;;;;;;;;18.10;71.90;;;;;;5093526;28;19924;-50
2021/11/10 00:56:02;;;;;;;;;;;18.10;71.90;;;;;;5093972;28;19931;-50
2021/11/10 00:58:29;;;;;;;;;;;18.10;72.60;;;;;;5076008;28;20441;-46
2021/11/10 01:00:56;;;;;;;;;;;18.10;71.90;;;;;;5073722;28;19928;-44
2021/11/10 01:03:27;;;;;;;;;;;18.10;71.90;;;;;;5074039;28;20288;-54
2021/11/10 01:05:55;;;;;;;;;;;18.10;71.90;;;;;;5077015;28;19924;-52
2021/11/10 01:08:22;;;;;;;;;;;18.10;71.90;;;;;;5094146;28;19977;-54
2021/11/10 01:10:49;;;;;;;;;;;18.10;71.90;;;;;;5094104;28;19925;-49
2021/11/10 01:13:18;;;;;;;;;;;18.10;71.90;;;;;;5079240;28;19995;-50
2021/11/10 01:15:45;;;;;;;;;;;18.10;71.90;;;;;;5073846;28;19929;-54
2021/11/10 01:18:12;;;;;;;;;;;18.10;71.90;;;;;;5073508;28;20019;-53
2021/11/10 01:20:40;;;;;;;;;;;18.10;71.90;;;;;;5073638;28;19923;-53
2021/11/10 01:23:08;;;;;;;;;;;18.10;71.90;;;;;;5093440;28;20375;-53
2021/11/10 01:25:36;;;;;;;;;;;18.10;71.90;;;;;;5093692;28;19950;-52
2021/11/10 01:28:03;;;;;;;;;;;18.00;71.80;;;;;;5082191;28;19925;-54
2021/11/10 01:30:30;;;;;;;;;;;18.10;71.90;;;;;;5073729;28;20333;-51
2021/11/10 01:32:58;;;;;;;;;;;18.10;71.90;;;;;;5073677;28;19990;-52
2021/11/10 01:35:24;;;;;;;;;;;18.10;72.00;;;;;;5087974;28;19928;-49
2021/11/10 01:37:51;;;;;;;;;;;18.10;72.00;;;;;;5093530;28;19924;-51
2021/11/10 01:40:19;;;;;;;;;;;18.00;71.90;;;;;;5093806;28;19952;-53
2021/11/10 01:42:47;;;;;;;;;;;18.10;72.00;;;;;;5085748;28;19928;-54
2021/11/10 01:45:16;;;;;;;;;;;18.00;71.80;;;;;;5073272;28;20303;-47
2021/11/10 01:47:43;;;;;;;;;;;18.10;71.90;;;;;;5073216;28;19924;-52
2021/11/10 01:50:13;;;;;;;;;;;18.10;72.00;;;;;;5084235;28;19924;-53
2021/11/10 01:52:40;;;;;;;;;;;18.00;71.90;;;;;;5093228;28;19924;-49
2021/11/10 01:55:07;;;;;;;;;;;18.10;72.00;;;;;;5096769;28;19993;-50
2021/11/10 01:57:35;;;;;;;;;;;18.00;71.90;;;;;;5092844;28;19932;-51
2021/11/10 02:00:02;;;;;;;;;;;18.00;71.90;;;;;;5077215;28;19925;-50
2021/11/10 02:02:30;;;;;;;;;;;18.10;72.00;;;;;;5077175;28;19925;-53
2021/11/10 02:04:57;;;;;;;;;;;18.00;71.90;;;;;;5084836;28;19978;-53
2021/11/10 02:07:26;;;;;;;;;;;18.00;71.90;;;;;;5097396;28;20275;-52
2021/11/10 02:09:53;;;;;;;;;;;18.00;71.90;;;;;;5096999;28;20337;-53
2021/11/10 02:12:20;;;;;;;;;;;18.00;71.90;;;;;;5096366;28;20386;-49
2021/11/10 02:14:47;;;;;;;;;;;18.00;71.90;;;;;;5076373;28;19929;-54
2021/11/10 02:17:16;;;;;;;;;;;18.00;71.90;;;;;;5077754;28;19980;-54
2021/11/10 02:19:44;;;;;;;;;;;18.00;71.90;;;;;;5081362;28;19989;-51
2021/11/10 02:22:16;;;;;;;;;;;18.00;71.90;;;;;;5097087;28;19924;-54
2021/11/10 02:24:44;;;;;;;;;;;18.00;72.00;;;;;;5096784;28;20291;-52
2021/11/10 02:27:17;;;;;;;;;;;18.00;71.90;;;;;;5096682;28;20420;-51
2021/11/10 02:29:46;;;;;;;;;;;18.00;71.90;;;;;;5077368;28;19928;-53
2021/11/10 02:32:13;;;;;;;;;;;18.00;71.90;;;;;;5076607;28;19970;-47
2021/11/10 02:34:44;;;;;;;;;;;18.00;71.90;;;;;;5079263;28;19928;-48
2021/11/10 02:37:12;;;;;;;;;;;18.00;71.90;;;;;;5096791;28;20272;-49
2021/11/10 02:39:39;;;;;;;;;;;18.00;71.90;;;;;;5096413;28;19924;-50
2021/11/10 02:42:07;;;;;;;;;;;18.00;72.00;;;;;;5096959;28;19924;-54
2021/11/10 02:44:34;;;;;;;;;;;18.00;72.00;;;;;;5079823;28;19977;-51
2021/11/10 02:47:04;;;;;;;;;;;18.00;72.00;;;;;;5076362;28;20295;-52
2021/11/10 02:49:31;;;;;;;;;;;18.00;71.90;;;;;;5076132;28;19929;-50
2021/11/10 02:52:00;;;;;;;;;;;18.00;71.90;;;;;;5096496;28;20287;-51
2021/11/10 02:54:27;;;;;;;;;;;18.00;72.00;;;;;;5078166;28;19928;-48
2021/11/10 02:56:56;;;;;;;;;;;18.00;72.00;;;;;;5096121;28;19931;-48
2021/11/10 02:59:23;;;;;;;;;;;18.00;71.90;;;;;;5082639;28;20272;-48
2021/11/10 03:01:50;;;;;;;;;;;18.00;72.00;;;;;;5075781;28;19974;-47
2021/11/10 03:04:21;;;;;;;;;;;18.00;72.00;;;;;;5075143;28;19924;-50
2021/11/10 03:06:49;;;;;;;;;;;18.00;72.00;;;;;;5076065;28;19978;-45
2021/11/10 03:09:20;;;;;;;;;;;18.00;72.00;;;;;;5096142;28;19928;-52
2021/11/10 03:11:47;;;;;;;;;;;18.00;72.00;;;;;;5095659;28;19977;-50
2021/11/10 03:14:14;;;;;;;;;;;18.00;72.00;;;;;;5084666;28;20376;-49
2021/11/10 03:16:41;;;;;;;;;;;18.00;72.00;;;;;;5075464;28;19931;-45
2021/11/10 03:19:09;;;;;;;;;;;18.00;72.00;;;;;;5075766;28;19925;-53
2021/11/10 03:21:36;;;;;;;;;;;18.00;72.00;;;;;;5090641;28;19997;-47
2021/11/10 03:24:04;;;;;;;;;;;18.00;72.00;;;;;;5095653;28;19973;-51
2021/11/10 03:26:31;;;;;;;;;;;18.00;72.00;;;;;;5095851;28;19924;-48
2021/11/10 03:29:02;;;;;;;;;;;18.00;72.00;;;;;;5088261;28;20368;-45
2021/11/10 03:31:31;;;;;;;;;;;18.00;72.00;;;;;;5075514;28;19925;-51
2021/11/10 03:33:58;;;;;;;;;;;18.00;72.10;;;;;;5075403;28;20291;-45
2021/11/10 03:36:26;;;;;;;;;;;18.00;72.00;;;;;;5087419;28;19928;-53
2021/11/10 03:38:53;;;;;;;;;;;18.00;72.10;;;;;;5095251;28;19925;-50
2021/11/10 03:41:21;;;;;;;;;;;18.00;72.00;;;;;;5095080;28;19924;-50
2021/11/10 03:43:51;;;;;;;;;;;18.00;72.10;;;;;;5091123;28;19986;-49
2021/11/10 03:46:18;;;;;;;;;;;18.00;72.10;;;;;;5074850;28;19924;-51
2021/11/10 03:48:47;;;;;;;;;;;18.00;72.00;;;;;;5075088;28;19924;-49
2021/11/10 03:51:14;;;;;;;;;;;18.00;72.00;;;;;;5083851;28;19931;-52
2021/11/10 03:53:41;;;;;;;;;;;18.00;72.00;;;;;;5094575;28;19924;-49
2021/11/10 03:56:08;;;;;;;;;;;18.00;72.00;;;;;;5094947;28;19931;-47
2021/11/10 03:58:35;;;;;;;;;;;18.00;72.00;;;;;;5094131;28;19924;-50
2021/11/10 04:01:05;;;;;;;;;;;18.00;72.00;;;;;;5074382;28;19970;-47
2021/11/10 04:03:33;;;;;;;;;;;18.00;72.00;;;;;;5074781;28;19931;-50
2021/11/10 04:06:00;;;;;;;;;;;18.00;72.10;;;;;;5080337;28;19977;-51
2021/11/10 04:08:27;;;;;;;;;;;18.00;72.10;;;;;;5094732;28;19928;-49
2021/11/10 04:10:55;;;;;;;;;;;18.00;72.10;;;;;;5094883;28;19963;-51
2021/11/10 04:13:22;;;;;;;;;;;18.00;72.10;;;;;;5094983;28;19931;-47
2021/11/10 04:15:50;;;;;;;;;;;18.00;72.10;;;;;;5076028;28;20349;-52
2021/11/10 04:18:17;;;;;;;;;;;18.00;72.10;;;;;;5056800;28;19929;-48
2021/11/10 04:20:44;;;;;;;;;;;18.00;72.10;;;;;;5076717;28;19928;-45
2021/11/10 04:23:11;;;;;;;;;;;18.00;72.10;;;;;;5094609;28;19925;-51
2021/11/10 04:25:38;;;;;;;;;;;18.00;72.10;;;;;;5094628;28;19924;-51
2021/11/10 04:28:05;;;;;;;;;;;18.00;72.10;;;;;;5094371;28;19924;-47
2021/11/10 04:30:32;;;;;;;;;;;18.00;72.10;;;;;;5080141;28;19928;-51
2021/11/10 04:32:59;;;;;;;;;;;18.00;72.10;;;;;;5074364;28;19977;-53
2021/11/10 04:35:26;;;;;;;;;;;18.00;72.10;;;;;;5074336;28;20488;-51
2021/11/10 04:37:53;;;;;;;;;;;18.00;72.10;;;;;;5092874;28;19924;-49
2021/11/10 04:40:20;;;;;;;;;;;18.00;72.10;;;;;;5094493;28;19928;-47
2021/11/10 04:42:47;;;;;;;;;;;18.00;72.10;;;;;;5076443;28;19978;-45
2021/11/10 04:45:20;;;;;;;;;;;18.00;72.10;;;;;;5065578;28;19925;-52
2021/11/10 04:47:47;;;;;;;;;;;18.00;72.10;;;;;;5073885;28;20380;-46
2021/11/10 04:50:15;;;;;;;;;;;18.00;72.10;;;;;;5074162;28;20007;-50
2021/11/10 04:52:42;;;;;;;;;;;18.00;72.10;;;;;;5089810;28;19924;-50
2021/11/10 04:55:09;;;;;;;;;;;18.00;72.10;;;;;;5093871;28;19931;-49
2021/11/10 04:57:36;;;;;;;;;;;18.00;72.10;;;;;;5076371;28;19928;-55
2021/11/10 05:00:04;;;;;;;;;;;18.00;72.10;;;;;;5086331;28;19932;-50
2021/11/10 05:02:31;;;;;;;;;;;18.00;72.10;;;;;;5074003;28;20279;-52
2021/11/10 05:04:58;;;;;;;;;;;18.00;72.10;;;;;;5073584;28;19932;-53
2021/11/10 05:07:25;;;;;;;;;;;18.00;72.00;;;;;;5086228;28;19945;-54
2021/11/10 05:09:54;;;;;;;;;;;18.00;72.10;;;;;;5094155;28;19924;-52
2021/11/10 05:12:21;;;;;;;;;;;18.00;72.10;;;;;;5093646;28;20015;-53
2021/11/10 05:14:52;;;;;;;;;;;18.00;72.10;;;;;;5089987;28;19994;-48
2021/11/10 05:17:20;;;;;;;;;;;18.00;72.10;;;;;;5073609;28;20445;-48
2021/11/10 05:19:47;;;;;;;;;;;18.00;72.10;;;;;;5056109;28;19983;-46
2021/11/10 05:22:34;;;;;;;;;;;18.00;72.10;;;;;;5073570;28;20015;-45
2021/11/10 05:25:01;;;;;;;;;;;18.00;72.00;;;;;;5073292;28;19924;-48
2021/11/10 05:27:28;;;;;;;;;;;18.00;72.00;;;;;;5074308;28;19928;-46
2021/11/10 05:29:55;;;;;;;;;;;18.00;72.00;;;;;;5077050;28;20315;-53
2021/11/10 05:32:22;;;;;;;;;;;18.00;72.10;;;;;;5077778;28;20296;-48
2021/11/10 05:34:50;;;;;;;;;;;18.00;72.10;;;;;;5077769;28;19990;-50
2021/11/10 05:37:18;;;;;;;;;;;18.00;72.10;;;;;;5086092;28;19935;-50
2021/11/10 05:39:45;;;;;;;;;;;18.00;72.80;;;;;;5097901;28;20299;-46
2021/11/10 05:42:12;;;;;;;;;;;18.00;72.70;;;;;;5097408;28;19924;-50
2021/11/10 05:44:41;;;;;;;;;;;18.00;72.10;;;;;;5097756;28;19925;-50
2021/11/10 05:47:09;;;;;;;;;;;18.00;72.10;;;;;;5077001;28;19931;-49
2021/11/10 05:49:37;;;;;;;;;;;18.00;72.10;;;;;;5077439;28;19931;-54
2021/11/10 05:52:06;;;;;;;;;;;18.00;72.10;;;;;;5082284;28;20390;-52
2021/11/10 05:54:34;;;;;;;;;;;18.00;72.10;;;;;;5096951;28;20307;-49
2021/11/10 05:57:01;;;;;;;;;;;18.00;72.00;;;;;;5097251;28;19931;-53
2021/11/10 05:59:28;;;;;;;;;;;18.00;72.00;;;;;;5097124;28;19974;-49
2021/11/10 06:01:56;;;;;;;;;;;18.00;72.00;;;;;;5079832;28;19925;-51
2021/11/10 06:04:23;;;;;;;;;;;18.00;72.00;;;;;;5077045;28;19925;-48
2021/11/10 06:06:50;;;;;;;;;;;18.00;72.00;;;;;;5079017;28;19928;-53
2021/11/10 06:09:17;;;;;;;;;;;18.00;72.00;;;;;;5097005;28;19928;-50
2021/11/10 06:11:45;;;;;;;;;;;18.00;72.00;;;;;;5096810;28;19924;-52
2021/11/10 06:14:12;;;;;;;;;;;18.00;72.00;;;;;;5097199;28;19924;-51
2021/11/10 06:16:39;;;;;;;;;;;18.00;72.00;;;;;;5083250;28;20323;-53
2021/11/10 06:19:07;;;;;;;;;;;18.00;71.90;;;;;;5076777;28;20338;-52
2021/11/10 06:21:34;;;;;;;;;;;18.00;71.90;;;;;;5076427;28;19924;-49
2021/11/10 06:24:01;;;;;;;;;;;18.00;71.90;;;;;;5095320;28;19949;-51
2021/11/10 06:26:28;;;;;;;;;;;18.00;71.90;;;;;;5096679;28;19970;-50
2021/11/10 06:28:55;;;;;;;;;;;18.00;71.90;;;;;;5096696;28;19924;-47
2021/11/10 06:31:22;;;;;;;;;;;18.00;71.90;;;;;;5086462;28;19924;-50
2021/11/10 06:33:49;;;;;;;;;;;18.00;71.90;;;;;;5076573;28;19925;-48
2021/11/10 06:36:17;;;;;;;;;;;18.00;71.80;;;;;;5076143;28;19928;-49
2021/11/10 06:38:46;;;;;;;;;;;18.00;71.80;;;;;;5091187;28;19924;-50
2021/11/10 06:41:18;;;;;;;;;;;18.00;71.80;;;;;;5096021;28;20353;-48
2021/11/10 06:43:46;;;;;;;;;;;18.00;72.50;;;;;;5079431;28;19973;-51
2021/11/10 06:46:14;;;;;;;;;;;18.00;71.80;;;;;;5071548;28;19928;-47
2021/11/10 06:48:41;;;;;;;;;;;18.00;71.70;;;;;;5076203;28;19931;-47
2021/11/10 06:51:08;;;;;;;;;;;18.00;71.70;;;;;;5076219;28;19924;-52
2021/11/10 06:53:36;;;;;;;;;;;18.00;71.70;;;;;;5088297;28;19939;-52
2021/11/10 06:56:02;;;;;;;;;;;18.00;71.50;;;;;;5096167;28;19931;-51
2021/11/10 06:58:30;;;;;;;;;;;18.10;71.70;;;;;;5078283;28;19970;-53
2021/11/10 07:00:57;;;;;;;;;;;18.10;71.70;;;;;;5074770;28;19928;-52
2021/11/10 07:03:24;;;;;;;;;;;18.10;71.60;;;;;;5075679;28;19924;-55
2021/11/10 07:05:51;;;;;;;;;;;18.10;71.60;;;;;;5075715;28;19968;-48
2021/11/10 07:08:19;;;;;;;;;;;18.10;71.50;;;;;;5084679;28;19928;-51
2021/11/10 07:10:46;;;;;;;;;;;18.10;71.50;;;;;;5096022;28;19947;-49
2021/11/10 07:13:13;;;;;;;;;;;18.10;71.50;;;;;;5095808;28;19931;-45
2021/11/10 07:15:40;;;;;;;;;;;18.10;71.40;;;;;;5095989;28;19928;-48
2021/11/10 07:18:07;;;;;;;;;;;18.10;71.40;;;;;;5078073;28;19925;-51
2021/11/10 07:20:34;;;;;;;;;;;18.10;71.30;;;;;;5075587;28;19947;-48
2021/11/10 07:23:01;;;;;;;;;;;18.10;71.30;;;;;;5080240;28;19924;-50
2021/11/10 07:25:28;;;;;;;;;;;18.10;71.30;;;;;;5095288;28;19928;-49
2021/11/10 07:27:55;;;;;;;;;;;18.20;71.30;;;;;;5095618;28;19924;-52
2021/11/10 07:30:22;;;;;;;;;;;18.20;71.30;;;;;;5095641;28;20060;-46
2021/11/10 07:32:50;;;;;;;;;;;18.20;71.20;;;;;;5081346;28;20391;-52
2021/11/10 07:35:17;;;;;;;;;;;18.20;71.20;;;;;;5075052;28;19973;-47
2021/11/10 07:37:45;;;;;;;;;;;18.20;71.20;;;;;;5076179;28;20396;-52
2021/11/10 07:40:14;;;;;;;;;;;18.20;71.20;;;;;;5095194;28;20376;-52
2021/11/10 07:42:42;;;;;;;;;;;18.20;71.10;;;;;;5095063;28;20386;-47
2021/11/10 07:45:15;;;;;;;;;;;18.20;71.10;;;;;;5095279;28;20329;-48
2021/11/10 07:47:42;;;;;;;;;;;18.20;71.00;;;;;;5083573;28;20436;-52
2021/11/10 07:50:11;;;;;;;;;;;18.30;71.10;;;;;;5074997;28;19924;-44
2021/11/10 07:52:38;;;;;;;;;;;18.20;71.00;;;;;;5074067;28;20387;-47
2021/11/10 07:55:06;;;;;;;;;;;18.20;71.00;;;;;;5094469;28;20381;-45
2021/11/10 07:57:34;;;;;;;;;;;18.20;70.90;;;;;;5094828;28;19974;-45
2021/11/10 08:00:04;;;;;;;;;;;18.20;70.90;;;;;;5094805;28;19928;-55
2021/11/10 08:02:31;;;;;;;;;;;18.20;70.90;;;;;;5086382;28;19947;-53
2021/11/10 08:04:58;;;;;;;;;;;18.20;70.90;;;;;;5074422;28;19924;-54
2021/11/10 08:07:26;;;;;;;;;;;18.30;71.00;;;;;;5074387;28;20380;-52
2021/11/10 08:09:55;;;;;;;;;;;18.30;71.00;;;;;;5091736;28;19924;-54
2021/11/10 08:12:23;;;;;;;;;;;18.30;70.90;;;;;;5094470;28;20377;-52
2021/11/10 08:14:50;;;;;;;;;;;18.30;70.90;;;;;;5094538;28;19924;-52
2021/11/10 08:17:17;;;;;;;;;;;18.30;70.90;;;;;;5089844;28;19932;-52
2021/11/10 08:19:44;;;;;;;;;;;18.30;70.80;;;;;;5074254;28;19928;-50
2021/11/10 08:22:11;;;;;;;;;;;18.30;70.90;;;;;;5074428;28;20330;-53
2021/11/10 08:24:38;;;;;;;;;;;18.30;70.80;;;;;;5087076;28;19997;-51
2021/11/10 08:27:05;;;;;;;;;;;18.30;70.90;;;;;;5094318;28;19928;-47
2021/11/10 08:29:32;;;;;;;;;;;18.30;70.90;;;;;;5094249;28;20383;-49
2021/11/10 08:32:00;;;;;;;;;;;18.30;70.80;;;;;;5093951;28;19931;-49
2021/11/10 08:34:27;;;;;;;;;;;18.30;71.70;;;;;;5073667;28;19924;-53
2021/11/10 08:36:54;;;;;;;;;;;18.30;70.90;;;;;;5073889;28;20395;-52
2021/11/10 08:39:24;;;;;;;;;;;18.30;70.90;;;;;;5083837;28;19930;-51
2021/11/10 08:41:52;;;;;;;;;;;18.30;70.90;;;;;;5094307;28;19928;-50
2021/11/10 08:44:19;;;;;;;;;;;18.40;71.00;;;;;;5094392;28;19936;-53
2021/11/10 08:46:46;;;;;;;;;;;18.40;71.00;;;;;;5093916;28;20395;-48
2021/11/10 08:49:13;;;;;;;;;;;18.30;70.90;;;;;;5076184;28;19929;-47
2021/11/10 08:51:40;;;;;;;;;;;18.40;71.00;;;;;;5073732;28;19924;-51
2021/11/10 08:54:07;;;;;;;;;;;18.40;71.00;;;;;;5079818;28;20001;-48
2021/11/10 08:56:35;;;;;;;;;;;18.40;71.00;;;;;;5093768;28;19923;-45
2021/11/10 08:59:02;;;;;;;;;;;18.40;71.00;;;;;;5093924;28;20383;-51
2021/11/10 09:01:30;;;;;;;;;;;18.40;71.00;;;;;;5094675;28;19931;-50
2021/11/10 09:03:57;;;;;;;;;;;18.40;70.90;;;;;;5079054;28;19932;-52
2021/11/10 09:06:24;;;;;;;;;;;18.40;70.90;;;;;;5073394;28;19972;-47
2021/11/10 09:08:51;;;;;;;;;;;18.40;70.90;;;;;;5075852;28;20318;-48
2021/11/10 09:11:19;;;;;;;;;;;18.50;71.00;;;;;;5093272;28;19973;-50
2021/11/10 09:13:46;;;;;;;;;;;18.50;70.90;;;;;;5093799;28;19924;-53
2021/11/10 09:16:14;;;;;;;;;;;18.50;70.90;;;;;;5093427;28;19954;-52
2021/11/10 09:18:41;;;;;;;;;;;18.50;70.90;;;;;;5082991;28;19931;-50
2021/11/10 09:21:09;;;;;;;;;;;18.50;70.90;;;;;;5073366;28;19935;-44
2021/11/10 09:23:38;;;;;;;;;;;18.50;70.90;;;;;;5072967;28;20011;-48
2021/11/10 09:26:05;;;;;;;;;;;18.50;70.90;;;;;;5093612;28;20291;-50
2021/11/10 09:28:33;;;;;;;;;;;18.50;70.90;;;;;;5093482;28;20362;-45
2021/11/10 09:31:00;;;;;;;;;;;18.50;70.80;;;;;;5093328;28;19924;-45
2021/11/10 09:33:27;;;;;;;;;;;18.50;70.80;;;;;;5086176;28;20299;-52
2021/11/10 09:35:54;;;;;;;;;;;18.50;70.80;;;;;;5073521;28;19924;-51
2021/11/10 09:38:23;;;;;;;;;;;18.50;70.70;;;;;;5073601;28;20003;-48
2021/11/10 09:40:51;;;;;;;;;;;18.50;70.70;;;;;;5089896;28;20052;-47
2021/11/10 09:43:19;;;;;;;;;;;18.50;70.60;;;;;;5093709;28;20019;-50
2021/11/10 09:45:47;;;;;;;;;;;18.50;70.60;;;;;;5093365;28;19975;-49
2021/11/10 09:48:15;;;;;;;;;;;18.50;70.60;;;;;;5089668;28;19928;-49
2021/11/10 09:50:45;;;;;;;;;;;18.50;70.50;;;;;;5073227;28;19924;-54
2021/11/10 09:53:12;;;;;;;;;;;18.50;70.50;;;;;;5073296;28;19925;-52
2021/11/10 09:55:39;;;;;;;;;;;18.50;70.50;;;;;;5086601;28;19924;-49
2021/11/10 09:58:07;;;;;;;;;;;18.50;70.50;;;;;;5093256;28;20379;-47
2021/11/10 10:00:37;;;;;;;;;;;18.50;70.50;;;;;;5093627;28;20332;-48
2021/11/10 10:03:04;;;;;;;;;;;18.50;70.40;;;;;;5074415;28;19931;-52
2021/11/10 10:05:32;;;;;;;;;;;18.50;70.40;;;;;;5072788;28;20317;-51
2021/11/10 10:08:00;;;;;;;;;;;18.50;70.40;;;;;;5073389;28;19987;-50
2021/11/10 10:10:27;;;;;;;;;;;18.50;70.30;;;;;;5083811;28;20340;-50
2021/11/10 10:12:56;;;;;;;;;;;18.50;70.30;;;;;;5093507;28;19946;-52
2021/11/10 10:15:25;;;;;;;;;;;18.50;70.30;;;;;;5077491;28;19928;-47
2021/11/10 10:17:59;;;;;;;;;;;18.50;70.30;;;;;;5079002;28;19931;-50
2021/11/10 10:20:29;;;;;;;;;;;18.50;70.20;;;;;;5077444;28;19947;-49
2021/11/10 10:22:58;;;;;;;;;;;18.50;70.20;;;;;;5076615;28;20289;-48
2021/11/10 10:25:55;;;;;;;;;;;18.50;70.20;;;;;;5085769;28;19977;-46
2021/11/10 10:28:25;;;;;;;;;;;18.50;70.20;;;;;;5034622;28;19925;-49
2021/11/10 10:30:54;;;;;;;;;;;18.50;70.20;;;;;;5034378;28;19925;-51
2021/11/10 10:33:28;;;;;;;;;;;18.50;70.20;;;;;;5034156;28;19932;-47
2021/11/10 10:36:00;;;;;;;;;;;18.50;70.10;;;;;;5014365;28;20435;-53
2021/11/10 10:38:29;;;;;;;;;;;18.50;70.10;;;;;;5014566;28;19925;-51
2021/11/10 10:40:59;;;;;;;;;;;18.50;70.20;;;;;;5025596;28;20016;-50
2021/11/10 10:43:27;;;;;;;;;;;18.50;70.10;;;;;;5034249;28;19976;-50
2021/11/10 10:45:56;;;;;;;;;;;18.50;70.20;;;;;;5033995;28;19925;-50
2021/11/10 10:48:27;;;;;;;;;;;18.50;70.10;;;;;;5017721;28;19925;-53
2021/11/10 10:50:56;;;;;;;;;;;18.50;70.10;;;;;;5013693;28;19929;-53
2021/11/10 10:53:31;;;;;;;;;;;18.50;70.10;;;;;;5013958;28;19926;-51
2021/11/10 10:55:59;;;;;;;;;;;18.50;70.00;;;;;;5024379;28;20388;-47
2021/11/10 10:58:34;;;;;;;;;;;18.50;70.00;;;;;;5033964;28;20373;-53
2021/11/10 11:01:15;;;;;;;;;;;18.60;70.10;;;;;;5033864;28;19925;-46
2021/11/10 11:03:48;;;;;;;;;;;18.60;70.10;;;;;;5036259;28;19991;-48
2021/11/10 11:06:29;;;;;;;;;;;18.60;70.10;;;;;;5076377;28;20380;-52
2021/11/10 11:09:08;;;;;;;;;;;18.60;70.10;;;;;;5076102;28;20391;-52
2021/11/10 11:11:40;;;;;;;;;;;18.60;70.00;;;;;;5090129;28;20019;-50
2021/11/10 11:14:15;;;;;;;;;;;18.60;70.00;;;;;;5095740;28;19931;-53
2021/11/10 11:16:43;;;;;;;;;;;18.60;70.00;;;;;;5096092;28;20298;-50
2021/11/10 11:19:12;;;;;;;;;;;18.60;70.00;;;;;;5092434;28;19931;-50
2021/11/10 11:21:46;;;;;;;;;;;18.60;70.70;;;;;;5075674;28;20382;-49
2021/11/10 11:24:52;;;;;;;;;;;18.60;70.00;;;;;;5075420;28;20329;-53
2021/11/10 11:27:21;;;;;;;;;;;18.60;70.00;;;;;;5032101;28;19988;-48
2021/11/10 11:29:54;;;;;;;;;;;18.60;69.90;;;;;;5033181;28;19936;-51
2021/11/10 11:32:26;;;;;;;;;;;18.60;69.90;;;;;;5033358;28;19972;-54
2021/11/10 11:34:55;;;;;;;;;;;18.60;69.90;;;;;;5025628;28;20005;-46
2021/11/10 11:37:23;;;;;;;;;;;18.60;69.90;;;;;;5013405;28;20044;-49
2021/11/10 11:39:51;;;;;;;;;;;18.60;69.90;;;;;;5013557;28;20031;-52
2021/11/10 11:42:19;;;;;;;;;;;18.60;69.80;;;;;;5030128;28;19935;-54
2021/11/10 11:44:46;;;;;;;;;;;18.60;69.80;;;;;;5033066;28;19932;-49
2021/11/10 11:47:13;;;;;;;;;;;18.60;69.80;;;;;;5032877;28;19927;-49
2021/11/10 11:49:41;;;;;;;;;;;18.60;69.80;;;;;;5028536;28;19952;-53
2021/11/10 11:52:11;;;;;;;;;;;18.60;69.90;;;;;;5013568;28;20341;-53
2021/11/10 11:54:41;;;;;;;;;;;18.60;69.80;;;;;;5012763;28;19930;-51
2021/11/10 11:57:10;;;;;;;;;;;18.60;69.80;;;;;;5031481;28;19929;-48
2021/11/10 11:59:38;;;;;;;;;;;18.60;69.80;;;;;;5075001;28;19925;-46
2021/11/10 12:02:31;;;;;;;;;;;18.60;69.80;;;;;;5074654;28;19925;-49
2021/11/10 12:04:59;;;;;;;;;;;18.60;69.80;;;;;;5067910;28;20426;-49
2021/11/10 12:07:46;;;;;;;;;;;18.60;69.80;;;;;;5054531;28;19951;-52
2021/11/10 12:10:22;;;;;;;;;;;18.60;69.80;;;;;;5054412;28;19925;-55
2021/11/10 12:13:08;;;;;;;;;;;18.60;69.80;;;;;;5073558;28;19970;-53
2021/11/10 12:15:53;;;;;;;;;;;18.60;69.80;;;;;;5075245;28;19924;-54
2021/11/10 12:18:21;;;;;;;;;;;18.60;69.80;;;;;;5073180;28;19925;-50
2021/11/10 12:20:55;;;;;;;;;;;18.60;69.70;;;;;;5070108;28;19932;-52
2021/11/10 12:23:22;;;;;;;;;;;18.60;69.80;;;;;;5054132;28;20375;-51
2021/11/10 12:26:06;;;;;;;;;;;18.60;69.80;;;;;;5055177;28;19924;-49
2021/11/10 12:28:54;;;;;;;;;;;18.60;69.80;;;;;;5075046;28;19929;-53
2021/11/10 12:31:33;;;;;;;;;;;18.60;69.80;;;;;;5074079;28;20007;-53
2021/11/10 12:34:03;;;;;;;;;;;18.60;69.80;;;;;;5074289;28;20398;-53
2021/11/10 12:36:48;;;;;;;;;;;18.60;69.80;;;;;;5064744;28;20415;-50
2021/11/10 12:39:26;;;;;;;;;;;18.60;69.70;;;;;;5053859;28;20312;-54
2021/11/10 12:41:56;;;;;;;;;;;18.60;69.70;;;;;;5062654;28;19990;-49
2021/11/10 12:44:31;;;;;;;;;;;18.60;69.70;;;;;;5074506;28;19924;-53
2021/11/10 12:47:00;;;;;;;;;;;18.60;69.70;;;;;;5074192;28;19925;-48
2021/11/10 12:49:27;;;;;;;;;;;18.70;69.70;;;;;;5074154;28;19931;-51
2021/11/10 12:52:09;;;;;;;;;;;18.70;69.70;;;;;;5063142;28;19948;-48
2021/11/10 12:54:37;;;;;;;;;;;18.70;69.80;;;;;;5063175;28;20307;-49
2021/11/10 12:57:05;;;;;;;;;;;18.70;69.70;;;;;;5082410;28;20443;-47
2021/11/10 12:59:36;;;;;;;;;;;18.60;69.60;;;;;;5093535;28;20462;-48
2021/11/10 13:02:14;;;;;;;;;;;18.70;69.80;;;;;;5093892;28;19924;-51
2021/11/10 13:04:45;;;;;;;;;;;18.70;69.80;;;;;;5093905;28;19924;-47
2021/11/10 13:07:20;;;;;;;;;;;18.70;69.80;;;;;;5081633;28;19924;-46
2021/11/10 13:09:49;;;;;;;;;;;18.70;70.50;;;;;;5073683;28;19924;-49
2021/11/10 13:12:17;;;;;;;;;;;18.70;69.80;;;;;;5082521;28;19924;-50
2021/11/10 13:14:54;;;;;;;;;;;18.70;69.80;;;;;;5093789;28;20409;-53
2021/11/10 13:17:26;;;;;;;;;;;18.60;69.80;;;;;;5094155;28;20003;-54
2021/11/10 13:19:53;;;;;;;;;;;18.60;69.80;;;;;;5094078;28;19924;-47
2021/11/10 13:22:33;;;;;;;;;;;18.60;69.80;;;;;;5081816;28;19925;-48
2021/11/10 13:25:04;;;;;;;;;;;18.60;69.80;;;;;;5073421;28;19931;-51
2021/11/10 13:27:32;;;;;;;;;;;18.60;70.00;;;;;;5083100;28;19931;-48
2021/11/10 13:30:00;;;;;;;;;;;18.60;70.00;;;;;;5093551;28;19924;-50
2021/11/10 13:32:27;;;;;;;;;;;18.60;69.90;;;;;;5093517;28;19924;-46
2021/11/10 13:35:01;;;;;;;;;;;18.60;70.00;;;;;;5094055;28;20382;-51
2021/11/10 13:37:41;;;;;;;;;;;18.60;70.00;;;;;;5082096;28;19978;-48
2021/11/10 13:40:09;;;;;;;;;;;18.60;70.00;;;;;;5073205;28;19968;-45
2021/11/10 13:42:38;;;;;;;;;;;18.60;70.00;;;;;;5064702;28;19930;-51
2021/11/10 13:45:10;;;;;;;;;;;18.60;70.00;;;;;;5093512;28;19924;-46
2021/11/10 13:47:38;;;;;;;;;;;18.60;70.00;;;;;;5093412;28;20390;-54
2021/11/10 13:50:07;;;;;;;;;;;18.60;70.00;;;;;;5097296;28;19928;-50
2021/11/10 13:52:35;;;;;;;;;;;18.60;70.00;;;;;;5086730;28;20300;-52
2021/11/10 13:55:04;;;;;;;;;;;18.60;70.00;;;;;;5076892;28;20007;-50
2021/11/10 13:57:32;;;;;;;;;;;18.60;70.00;;;;;;5084383;28;20301;-48
2021/11/10 14:00:04;;;;;;;;;;;18.60;70.00;;;;;;5097261;28;19950;-51
2021/11/10 14:02:51;;;;;;;;;;;18.60;70.00;;;;;;5097263;28;19980;-48
2021/11/10 14:05:21;;;;;;;;;;;18.60;70.00;;;;;;5097213;28;19928;-53
2021/11/10 14:07:48;;;;;;;;;;;18.60;70.00;;;;;;5086362;28;20360;-51
2021/11/10 14:10:17;;;;;;;;;;;18.60;70.10;;;;;;5077002;28;20275;-47
2021/11/10 14:12:50;;;;;;;;;;;18.60;70.10;;;;;;5084708;28;20379;-47
2021/11/10 14:15:26;;;;;;;;;;;18.60;70.00;;;;;;5097009;28;20032;-55
2021/11/10 14:17:56;;;;;;;;;;;18.60;70.00;;;;;;5097014;28;19970;-51
2021/11/10 14:20:27;;;;;;;;;;;18.60;70.10;;;;;;5096914;28;19924;-49
2021/11/10 14:22:57;;;;;;;;;;;18.60;70.10;;;;;;5092084;28;20457;-56
2021/11/10 14:25:27;;;;;;;;;;;18.60;70.10;;;;;;5076504;28;19925;-53
2021/11/10 14:27:55;;;;;;;;;;;18.60;70.10;;;;;;5084132;28;19924;-50